aviador You're here:

UKLL Decoded Metar

LVOV in UKRAINE
Report Time2017-08-23 03:30:00
UTC Time2017-08-23 04:03:41
Flight Rules lifr LIFR
Wind290° at 8 kt
W.Decomp.*RWY 31: 7.4 kt HW 3.1 kt LCW
W.Rank290° ranks 6
Current wind is below 290° avg. (8.1)
Visibility8000 m
Phenomena:N/A
Clouds:Overcast 004 Hf
Expected CloudBase > 400 ft AGL from Temp-Dew spread
Ceiling400 ft
Temp11°C (ISA -2)
Dew Point10°C (94% RH)
AAT8.2°C
QNH1014 hPa
Density Alt978 ft
Elevation1,066 ft
Report Wrong Elevation
Raw Report
UKLL 230330Z 29004MPS 8000 OVC004 11/10 Q1014 R31/190070 NOSIG=

Extra information for UKLL:More info

Metar Taf Metar & Taf Last 4 Metars F.Rules Stats Wind Profile Meteogram Temp Stats Airport Information Weather charts Add Link Nearby VenuesMetar ALERT Operation Metar Decoded Social comments